createdAt,value
2022-08-31T00:00:42.166Z,9.77
2022-08-31T00:05:45.354Z,12.88
2022-08-31T00:10:50.369Z,11.38
2022-08-31T00:15:56.915Z,13.23
2022-08-31T00:21:00.316Z,10.80
2022-08-31T00:26:06.304Z,12.80
2022-08-31T00:31:09.781Z,9.68
2022-08-31T00:36:14.760Z,10.90
2022-08-31T00:41:22.372Z,8.77
2022-08-31T00:46:31.433Z,11.18
2022-08-31T00:51:42.816Z,9.25
2022-08-31T00:56:46.150Z,9.63
2022-08-31T01:01:49.634Z,9.88
2022-08-31T01:46:15.517Z,9.57
2022-08-31T01:51:21.428Z,8.73
2022-08-31T01:56:31.534Z,8.60
2022-08-31T02:01:40.794Z,11.65
2022-08-31T02:06:47.735Z,9.50
2022-08-31T02:11:51.396Z,10.15
2022-08-31T02:16:57.319Z,11.20
2022-08-31T02:22:00.356Z,10.10
2022-08-31T02:27:03.336Z,9.43
2022-08-31T02:32:07.471Z,9.13
2022-08-31T02:37:11.037Z,11.45
2022-08-31T02:42:14.118Z,9.60
2022-08-31T02:47:18.446Z,11.68
2022-08-31T02:52:21.469Z,9.77
2022-08-31T02:57:25.068Z,14.68
2022-08-31T03:02:31.915Z,9.68
2022-08-31T03:07:36.224Z,10.68
2022-08-31T03:12:42.512Z,9.88
2022-08-31T03:17:45.519Z,10.70
2022-08-31T03:22:48.829Z,10.02
2022-08-31T03:27:53.229Z,9.45
2022-08-31T03:33:02.531Z,11.75
2022-08-31T03:38:06.259Z,9.77
2022-08-31T03:43:12.191Z,10.70
2022-08-31T03:48:15.606Z,9.20
2022-08-31T03:53:23.067Z,9.90
2022-08-31T03:58:26.241Z,9.40
2022-08-31T04:03:30.212Z,10.52
2022-08-31T04:08:36.250Z,8.43
2022-08-31T04:13:42.774Z,13.05
2022-08-31T04:18:47.716Z,9.13
2022-08-31T04:23:51.270Z,10.23
2022-08-31T04:28:57.248Z,9.18
2022-08-31T04:34:01.078Z,11.85
2022-08-31T04:39:07.507Z,8.45
2022-08-31T04:44:15.343Z,8.35
2022-08-31T04:49:20.906Z,8.90
2022-08-31T04:54:23.920Z,9.65
2022-08-31T04:59:28.184Z,10.68
2022-08-31T05:04:32.644Z,11.57
2022-08-31T05:09:36.134Z,11.63
2022-08-31T05:14:40.058Z,9.07
2022-08-31T05:19:43.778Z,9.35
2022-08-31T05:24:48.166Z,10.88
2022-08-31T05:29:51.496Z,8.48
2022-08-31T05:34:54.742Z,8.80
2022-08-31T05:39:57.926Z,10.73
2022-08-31T05:45:01.457Z,9.25
2022-08-31T05:50:08.175Z,11.52
2022-08-31T05:55:12.952Z,11.10
2022-08-31T06:00:16.350Z,9.63
2022-08-31T06:05:20.308Z,11.88
2022-08-31T06:10:23.433Z,15.30
2022-08-31T06:15:26.477Z,8.57
2022-08-31T06:20:30.446Z,7.57
2022-08-31T06:25:34.777Z,9.80
2022-08-31T06:30:54.454Z,8.65
2022-08-31T06:35:58.622Z,15.50
2022-08-31T06:41:01.830Z,12.07
2022-08-31T06:46:04.912Z,14.15
2022-08-31T06:51:09.040Z,9.05
2022-08-31T06:56:20.638Z,9.00
2022-08-31T07:01:35.374Z,9.23
2022-08-31T07:06:43.023Z,11.00
2022-08-31T07:11:50.496Z,10.80
2022-08-31T07:16:58.000Z,9.23
2022-08-31T07:22:02.514Z,12.60
2022-08-31T07:27:11.512Z,8.60
2022-08-31T07:32:15.890Z,12.02
2022-08-31T07:37:37.651Z,9.90
2022-08-31T07:42:44.540Z,12.95
2022-08-31T07:47:47.897Z,12.10
2022-08-31T07:52:54.916Z,10.38
2022-08-31T07:57:58.501Z,14.95
2022-08-31T08:03:08.262Z,10.65
2022-08-31T08:08:13.526Z,13.02
2022-08-31T08:13:20.598Z,10.38
2022-08-31T08:18:24.215Z,9.02
2022-08-31T08:23:29.051Z,11.63
2022-08-31T08:28:41.008Z,14.15
2022-08-31T08:33:44.774Z,10.95
2022-08-31T08:38:51.315Z,11.15
2022-08-31T08:43:58.076Z,11.52
2022-08-31T08:49:10.036Z,10.70
2022-08-31T08:54:19.898Z,8.57
2022-08-31T08:59:22.951Z,8.00
2022-08-31T09:04:50.198Z,10.75
2022-08-31T09:10:15.080Z,11.23
2022-08-31T09:15:38.216Z,10.80
2022-08-31T09:20:42.047Z,12.27
2022-08-31T09:25:52.791Z,7.18
2022-08-31T09:30:55.862Z,8.23
2022-08-31T09:36:23.309Z,9.68
2022-08-31T09:41:37.302Z,9.85
2022-08-31T09:46:51.262Z,8.75
2022-08-31T09:52:17.336Z,8.02
2022-08-31T09:57:20.319Z,9.13
2022-08-31T10:02:23.957Z,9.77
2022-08-31T10:07:42.801Z,7.82
2022-08-31T10:12:58.955Z,8.90
2022-08-31T10:18:26.100Z,6.97
2022-08-31T10:23:39.330Z,8.05
2022-08-31T10:28:55.049Z,5.85
2022-08-31T10:34:30.752Z,7.28
2022-08-31T10:39:42.514Z,8.00
2022-08-31T10:44:57.825Z,9.93
2022-08-31T10:50:01.853Z,10.27
2022-08-31T10:55:33.930Z,9.85
2022-08-31T11:00:49.689Z,14.20
2022-08-31T11:06:03.713Z,8.07
2022-08-31T11:11:11.952Z,6.03
2022-08-31T11:16:35.104Z,7.63
2022-08-31T11:22:06.415Z,7.80
2022-08-31T11:27:26.498Z,6.80
2022-08-31T11:32:36.833Z,4.97
2022-08-31T11:37:56.560Z,6.43
2022-08-31T11:43:02.021Z,4.82
2022-08-31T11:48:14.081Z,6.18
2022-08-31T11:53:36.594Z,6.13
2022-08-31T11:58:40.608Z,7.07
2022-08-31T12:04:04.405Z,6.55
2022-08-31T12:09:22.554Z,6.65
2022-08-31T12:14:51.988Z,6.45
2022-08-31T12:20:02.402Z,5.70
2022-08-31T12:25:17.931Z,5.97
2022-08-31T12:30:24.428Z,8.25
2022-08-31T12:35:31.840Z,6.72
2022-08-31T12:40:42.503Z,8.00
2022-08-31T12:45:45.505Z,7.45
2022-08-31T12:51:33.669Z,8.05
2022-08-31T12:57:02.833Z,8.77
2022-08-31T13:02:06.020Z,6.72
2022-08-31T13:07:30.860Z,5.70
2022-08-31T13:12:35.908Z,6.40
2022-08-31T13:17:39.842Z,6.75
2022-08-31T13:22:44.962Z,5.60
2022-08-31T13:27:51.348Z,6.35
2022-08-31T13:32:55.413Z,9.38
2022-08-31T13:38:06.931Z,6.95
2022-08-31T13:43:11.635Z,7.03
2022-08-31T13:48:21.150Z,5.78
2022-08-31T13:53:43.081Z,5.10
2022-08-31T13:58:46.191Z,8.48
2022-08-31T14:04:00.232Z,7.22
2022-08-31T14:09:17.119Z,6.75
2022-08-31T14:14:30.490Z,5.50
2022-08-31T14:19:39.506Z,11.10
2022-08-31T14:24:45.511Z,6.82
2022-08-31T14:29:49.124Z,6.47
2022-08-31T14:34:52.096Z,8.15
2022-08-31T14:40:00.986Z,5.57
2022-08-31T14:45:19.186Z,6.20
2022-08-31T14:50:26.363Z,9.60
2022-08-31T14:55:30.899Z,6.82
2022-08-31T15:00:36.206Z,7.13
2022-08-31T15:05:41.005Z,7.13
2022-08-31T15:10:47.087Z,6.65
2022-08-31T15:15:51.304Z,8.05
2022-08-31T15:20:54.688Z,7.65
2022-08-31T15:26:07.385Z,8.25
2022-08-31T15:31:20.890Z,8.98
2022-08-31T15:36:25.784Z,7.80
2022-08-31T15:41:30.587Z,9.80
2022-08-31T15:46:54.829Z,8.75
2022-08-31T15:52:00.989Z,9.50
2022-08-31T15:57:07.030Z,8.25
2022-08-31T16:02:13.116Z,12.00
2022-08-31T16:07:16.514Z,8.98
2022-08-31T16:12:30.153Z,10.02
2022-08-31T16:17:51.933Z,13.25
2022-08-31T16:22:55.150Z,9.45
2022-08-31T16:28:00.588Z,9.80
2022-08-31T16:33:03.712Z,8.68
2022-08-31T16:38:07.865Z,9.75
2022-08-31T16:43:11.546Z,7.95
2022-08-31T16:48:35.913Z,7.97
2022-08-31T16:53:40.142Z,10.60
2022-08-31T16:58:54.304Z,8.18
2022-08-31T17:04:02.399Z,10.60
2022-08-31T17:09:09.578Z,10.02
2022-08-31T17:14:14.280Z,10.95
2022-08-31T17:19:20.639Z,10.10
2022-08-31T17:24:26.475Z,7.22
2022-08-31T17:29:34.100Z,7.03
2022-08-31T17:34:42.627Z,10.13
2022-08-31T17:39:46.404Z,8.15
2022-08-31T17:44:52.932Z,7.63
2022-08-31T17:49:56.060Z,11.43
2022-08-31T17:55:01.146Z,7.28
2022-08-31T18:00:05.220Z,10.23
2022-08-31T18:05:12.069Z,7.82
2022-08-31T18:10:19.411Z,9.25
2022-08-31T18:15:24.434Z,9.00
2022-08-31T18:20:29.277Z,8.65
2022-08-31T18:25:36.990Z,12.25
2022-08-31T18:30:42.014Z,9.18
2022-08-31T18:35:46.936Z,9.43
2022-08-31T18:41:08.657Z,11.57
2022-08-31T18:46:11.940Z,8.80
2022-08-31T18:51:19.043Z,11.68
2022-08-31T18:56:29.092Z,11.30
2022-08-31T19:01:35.448Z,9.82
2022-08-31T19:06:43.551Z,9.90
2022-08-31T19:11:52.593Z,12.77
2022-08-31T19:22:07.142Z,10.55
2022-08-31T19:27:11.828Z,13.05
2022-08-31T19:32:14.884Z,12.98
2022-08-31T19:37:17.997Z,12.85
2022-08-31T19:42:40.244Z,13.57
2022-08-31T19:47:43.484Z,13.52
2022-08-31T19:52:47.229Z,12.43
2022-08-31T19:57:50.683Z,13.52
2022-08-31T20:02:56.120Z,12.00
2022-08-31T20:07:59.196Z,13.40
2022-08-31T20:13:05.273Z,18.23
2022-08-31T20:18:14.613Z,14.82
2022-08-31T20:23:21.876Z,15.15
2022-08-31T20:28:27.100Z,14.40
2022-08-31T20:33:30.169Z,12.70
2022-08-31T20:38:37.030Z,14.88
2022-08-31T20:43:40.420Z,14.90
2022-08-31T20:49:04.944Z,14.57
2022-08-31T20:54:08.560Z,13.27
2022-08-31T20:59:14.219Z,15.15
2022-08-31T21:04:17.195Z,14.68
2022-08-31T21:09:21.163Z,14.07
2022-08-31T21:14:27.254Z,19.52
2022-08-31T21:24:43.447Z,14.60
2022-08-31T21:29:48.042Z,20.35
2022-08-31T21:34:51.084Z,15.00
2022-08-31T21:39:57.921Z,15.40
2022-08-31T21:45:01.119Z,16.42
2022-08-31T21:50:04.835Z,18.30
2022-08-31T21:55:08.737Z,13.23
2022-08-31T22:00:16.115Z,16.40
2022-08-31T22:05:20.816Z,15.07
2022-08-31T22:10:25.736Z,14.73
2022-08-31T22:15:28.873Z,15.30
2022-08-31T22:20:37.447Z,16.48
2022-08-31T22:25:42.705Z,15.15
2022-08-31T22:30:47.121Z,18.52
2022-08-31T22:35:50.836Z,18.48
2022-08-31T22:40:54.208Z,13.90
2022-08-31T22:45:57.241Z,13.23
2022-08-31T22:51:11.330Z,13.15
2022-08-31T22:56:21.747Z,14.35
2022-08-31T23:01:29.885Z,13.27
2022-08-31T23:06:34.554Z,19.57
2022-08-31T23:11:40.937Z,14.93
2022-08-31T23:16:46.347Z,14.82
2022-08-31T23:21:56.758Z,17.90
2022-08-31T23:27:04.593Z,14.55
2022-08-31T23:32:12.771Z,14.90
2022-08-31T23:37:18.207Z,16.83
2022-08-31T23:42:26.104Z,16.70
2022-08-31T23:47:31.463Z,16.20
2022-08-31T23:52:38.385Z,16.27
2022-08-31T23:57:42.597Z,14.80
